sensor_id;sensor_type;location;lat;lon;timestamp;temperature;humidity
13389;DHT22;6764;53.250;10.410;2022-09-28T00:01:22;10.60;99.90
13389;DHT22;6764;53.250;10.410;2022-09-28T00:03:49;10.60;99.90
13389;DHT22;6764;53.250;10.410;2022-09-28T00:06:19;10.60;99.90
13389;DHT22;6764;53.250;10.410;2022-09-28T00:08:45;10.60;99.90
13389;DHT22;6764;53.250;10.410;2022-09-28T00:11:13;10.50;99.90
13389;DHT22;6764;53.250;10.410;2022-09-28T00:13:40;10.60;99.90
13389;DHT22;6764;53.250;10.410;2022-09-28T00:16:12;10.60;99.90
13389;DHT22;6764;53.250;10.410;2022-09-28T00:18:38;10.60;99.90
13389;DHT22;6764;53.250;10.410;2022-09-28T00:21:10;10.60;99.90
13389;DHT22;6764;53.250;10.410;2022-09-28T00:23:37;10.50;99.90
13389;DHT22;6764;53.250;10.410;2022-09-28T00:26:23;10.60;99.90
13389;DHT22;6764;53.250;10.410;2022-09-28T00:28:53;10.50;99.90
13389;DHT22;6764;53.250;10.410;2022-09-28T00:31:19;10.60;99.90
13389;DHT22;6764;53.250;10.410;2022-09-28T00:33:49;10.50;99.90
13389;DHT22;6764;53.250;10.410;2022-09-28T00:36:15;10.50;99.90
13389;DHT22;6764;53.250;10.410;2022-09-28T00:38:40;10.40;99.90
13389;DHT22;6764;53.250;10.410;2022-09-28T00:41:06;10.30;99.90
13389;DHT22;6764;53.250;10.410;2022-09-28T00:43:32;10.20;99.90
13389;DHT22;6764;53.250;10.410;2022-09-28T00:46:04;10.20;99.90
13389;DHT22;6764;53.250;10.410;2022-09-28T00:48:36;10.10;99.90
13389;DHT22;6764;53.250;10.410;2022-09-28T00:51:08;10.10;99.90
13389;DHT22;6764;53.250;10.410;2022-09-28T00:53:35;10.00;99.90
13389;DHT22;6764;53.250;10.410;2022-09-28T00:56:10;9.90;99.90
13389;DHT22;6764;53.250;10.410;2022-09-28T00:58:45;9.90;99.90
13389;DHT22;6764;53.250;10.410;2022-09-28T01:01:11;9.90;99.90
13389;DHT22;6764;53.250;10.410;2022-09-28T01:03:38;9.90;99.90
13389;DHT22;6764;53.250;10.410;2022-09-28T01:06:15;9.90;99.90
13389;DHT22;6764;53.250;10.410;2022-09-28T01:08:43;9.80;99.90
13389;DHT22;6764;53.250;10.410;2022-09-28T01:11:10;9.80;99.90
13389;DHT22;6764;53.250;10.410;2022-09-28T01:13:36;9.70;99.90
13389;DHT22;6764;53.250;10.410;2022-09-28T01:16:10;9.60;99.90
13389;DHT22;6764;53.250;10.410;2022-09-28T01:18:49;9.50;99.90
13389;DHT22;6764;53.250;10.410;2022-09-28T01:21:19;9.60;99.90
13389;DHT22;6764;53.250;10.410;2022-09-28T01:29:51;9.60;99.90
13389;DHT22;6764;53.250;10.410;2022-09-28T01:32:24;9.50;99.90
13389;DHT22;6764;53.250;10.410;2022-09-28T01:35:07;9.50;99.90
13389;DHT22;6764;53.250;10.410;2022-09-28T01:37:48;9.60;99.90
13389;DHT22;6764;53.250;10.410;2022-09-28T01:40:18;9.60;99.90
13389;DHT22;6764;53.250;10.410;2022-09-28T01:42:46;9.60;99.90
13389;DHT22;6764;53.250;10.410;2022-09-28T01:45:26;9.50;99.90
13389;DHT22;6764;53.250;10.410;2022-09-28T01:47:56;9.60;99.90
13389;DHT22;6764;53.250;10.410;2022-09-28T01:50:25;9.60;99.90
13389;DHT22;6764;53.250;10.410;2022-09-28T01:53:04;9.60;99.90
13389;DHT22;6764;53.250;10.410;2022-09-28T01:55:44;9.60;99.90
13389;DHT22;6764;53.250;10.410;2022-09-28T01:58:15;9.50;99.90
13389;DHT22;6764;53.250;10.410;2022-09-28T02:00:46;9.50;99.90
13389;DHT22;6764;53.250;10.410;2022-09-28T02:03:18;9.60;99.90
13389;DHT22;6764;53.250;10.410;2022-09-28T02:05:51;9.60;99.90
13389;DHT22;6764;53.250;10.410;2022-09-28T02:08:30;9.50;99.90
13389;DHT22;6764;53.250;10.410;2022-09-28T02:11:15;9.50;99.90
13389;DHT22;6764;53.250;10.410;2022-09-28T02:13:48;9.50;99.90
13389;DHT22;6764;53.250;10.410;2022-09-28T02:16:36;9.50;99.90
13389;DHT22;6764;53.250;10.410;2022-09-28T02:19:04;9.50;99.90
13389;DHT22;6764;53.250;10.410;2022-09-28T02:21:40;9.50;99.90
13389;DHT22;6764;53.250;10.410;2022-09-28T02:24:13;9.60;99.90
13389;DHT22;6764;53.250;10.410;2022-09-28T02:26:42;9.70;99.90
13389;DHT22;6764;53.250;10.410;2022-09-28T02:29:09;9.70;99.90
13389;DHT22;6764;53.250;10.410;2022-09-28T02:31:35;9.60;99.90
13389;DHT22;6764;53.250;10.410;2022-09-28T02:34:00;9.60;99.90
13389;DHT22;6764;53.250;10.410;2022-09-28T02:36:27;9.60;99.90
13389;DHT22;6764;53.250;10.410;2022-09-28T02:38:53;9.50;99.90
13389;DHT22;6764;53.250;10.410;2022-09-28T02:41:40;9.50;99.90
13389;DHT22;6764;53.250;10.410;2022-09-28T02:44:17;9.60;99.90
13389;DHT22;6764;53.250;10.410;2022-09-28T02:49:48;9.60;99.90
13389;DHT22;6764;53.250;10.410;2022-09-28T02:52:44;9.50;99.90
13389;DHT22;6764;53.250;10.410;2022-09-28T03:00:25;9.50;99.90
13389;DHT22;6764;53.250;10.410;2022-09-28T03:02:58;9.50;99.90
13389;DHT22;6764;53.250;10.410;2022-09-28T03:08:08;9.60;99.90
13389;DHT22;6764;53.250;10.410;2022-09-28T03:10:43;9.70;99.90
13389;DHT22;6764;53.250;10.410;2022-09-28T03:13:12;9.70;99.90
13389;DHT22;6764;53.250;10.410;2022-09-28T03:15:38;9.60;99.90
13389;DHT22;6764;53.250;10.410;2022-09-28T03:18:04;9.50;99.90
13389;DHT22;6764;53.250;10.410;2022-09-28T03:20:31;9.50;99.90
13389;DHT22;6764;53.250;10.410;2022-09-28T03:22:58;9.50;99.90
13389;DHT22;6764;53.250;10.410;2022-09-28T03:25:23;9.50;99.90
13389;DHT22;6764;53.250;10.410;2022-09-28T03:27:49;9.60;99.90
13389;DHT22;6764;53.250;10.410;2022-09-28T03:30:15;9.60;99.90
13389;DHT22;6764;53.250;10.410;2022-09-28T03:32:40;9.70;99.90
13389;DHT22;6764;53.250;10.410;2022-09-28T03:35:07;9.80;99.90
13389;DHT22;6764;53.250;10.410;2022-09-28T03:37:33;9.70;99.90
13389;DHT22;6764;53.250;10.410;2022-09-28T03:39:59;9.80;99.90
13389;DHT22;6764;53.250;10.410;2022-09-28T03:42:25;9.80;99.90
13389;DHT22;6764;53.250;10.410;2022-09-28T03:44:50;9.70;99.90
13389;DHT22;6764;53.250;10.410;2022-09-28T03:47:16;9.80;99.90
13389;DHT22;6764;53.250;10.410;2022-09-28T03:49:43;9.70;99.90
13389;DHT22;6764;53.250;10.410;2022-09-28T03:52:08;9.70;99.90
13389;DHT22;6764;53.250;10.410;2022-09-28T03:54:34;9.70;99.90
13389;DHT22;6764;53.250;10.410;2022-09-28T03:57:00;9.70;99.90
13389;DHT22;6764;53.250;10.410;2022-09-28T03:59:25;9.70;99.90
13389;DHT22;6764;53.250;10.410;2022-09-28T04:01:51;9.70;99.90
13389;DHT22;6764;53.250;10.410;2022-09-28T04:04:17;9.50;99.90
13389;DHT22;6764;53.250;10.410;2022-09-28T04:06:43;9.60;99.90
13389;DHT22;6764;53.250;10.410;2022-09-28T04:09:09;9.60;99.90
13389;DHT22;6764;53.250;10.410;2022-09-28T04:11:34;9.60;99.90
13389;DHT22;6764;53.250;10.410;2022-09-28T04:14:00;9.60;99.90
13389;DHT22;6764;53.250;10.410;2022-09-28T04:16:26;9.60;99.90
13389;DHT22;6764;53.250;10.410;2022-09-28T04:18:51;9.60;99.90
13389;DHT22;6764;53.250;10.410;2022-09-28T04:21:19;9.70;99.90
13389;DHT22;6764;53.250;10.410;2022-09-28T04:23:45;9.70;99.90
13389;DHT22;6764;53.250;10.410;2022-09-28T04:26:23;9.70;99.90
13389;DHT22;6764;53.250;10.410;2022-09-28T04:28:49;9.80;99.90
13389;DHT22;6764;53.250;10.410;2022-09-28T04:31:53;9.70;99.90
13389;DHT22;6764;53.250;10.410;2022-09-28T04:34:20;9.70;99.90
13389;DHT22;6764;53.250;10.410;2022-09-28T04:36:47;9.80;99.90
13389;DHT22;6764;53.250;10.410;2022-09-28T04:39:16;9.80;99.90
13389;DHT22;6764;53.250;10.410;2022-09-28T04:41:42;9.70;99.90
13389;DHT22;6764;53.250;10.410;2022-09-28T04:44:08;9.70;99.90
13389;DHT22;6764;53.250;10.410;2022-09-28T04:46:34;9.70;99.90
13389;DHT22;6764;53.250;10.410;2022-09-28T04:49:01;9.70;99.90
13389;DHT22;6764;53.250;10.410;2022-09-28T04:51:30;9.70;99.90
13389;DHT22;6764;53.250;10.410;2022-09-28T04:53:56;9.70;99.90
13389;DHT22;6764;53.250;10.410;2022-09-28T04:56:21;9.70;99.90
13389;DHT22;6764;53.250;10.410;2022-09-28T04:58:47;9.70;99.90
13389;DHT22;6764;53.250;10.410;2022-09-28T05:01:17;9.80;99.90
13389;DHT22;6764;53.250;10.410;2022-09-28T05:03:43;9.90;99.90
13389;DHT22;6764;53.250;10.410;2022-09-28T05:06:12;9.90;99.90
13389;DHT22;6764;53.250;10.410;2022-09-28T05:08:38;9.90;99.90
13389;DHT22;6764;53.250;10.410;2022-09-28T05:11:06;9.90;99.90
13389;DHT22;6764;53.250;10.410;2022-09-28T05:13:33;9.90;99.90
13389;DHT22;6764;53.250;10.410;2022-09-28T05:16:06;9.90;99.90
13389;DHT22;6764;53.250;10.410;2022-09-28T05:18:32;9.90;99.90
13389;DHT22;6764;53.250;10.410;2022-09-28T05:20:57;9.90;99.90
13389;DHT22;6764;53.250;10.410;2022-09-28T05:23:23;9.90;99.90
13389;DHT22;6764;53.250;10.410;2022-09-28T05:25:48;9.90;99.90
13389;DHT22;6764;53.250;10.410;2022-09-28T05:28:21;9.90;99.90
13389;DHT22;6764;53.250;10.410;2022-09-28T05:30:48;9.90;99.90
13389;DHT22;6764;53.250;10.410;2022-09-28T05:33:13;10.00;99.90
13389;DHT22;6764;53.250;10.410;2022-09-28T05:35:39;10.00;99.90
13389;DHT22;6764;53.250;10.410;2022-09-28T05:38:04;10.00;99.90
13389;DHT22;6764;53.250;10.410;2022-09-28T05:40:30;10.00;99.90
13389;DHT22;6764;53.250;10.410;2022-09-28T05:43:00;10.00;99.90
13389;DHT22;6764;53.250;10.410;2022-09-28T05:45:27;9.90;99.90
13389;DHT22;6764;53.250;10.410;2022-09-28T05:47:54;9.90;99.90
13389;DHT22;6764;53.250;10.410;2022-09-28T05:50:19;9.90;99.90
13389;DHT22;6764;53.250;10.410;2022-09-28T05:52:45;9.90;99.90
13389;DHT22;6764;53.250;10.410;2022-09-28T05:55:11;9.90;99.90
13389;DHT22;6764;53.250;10.410;2022-09-28T05:57:37;9.90;99.90
13389;DHT22;6764;53.250;10.410;2022-09-28T06:00:04;9.90;99.90
13389;DHT22;6764;53.250;10.410;2022-09-28T06:02:32;10.00;99.90
13389;DHT22;6764;53.250;10.410;2022-09-28T06:04:57;10.00;99.90
13389;DHT22;6764;53.250;10.410;2022-09-28T06:07:23;10.10;99.90
13389;DHT22;6764;53.250;10.410;2022-09-28T06:09:48;10.10;99.90
13389;DHT22;6764;53.250;10.410;2022-09-28T06:12:14;10.10;99.90
13389;DHT22;6764;53.250;10.410;2022-09-28T06:14:40;10.10;99.90
13389;DHT22;6764;53.250;10.410;2022-09-28T06:17:06;10.10;99.90
13389;DHT22;6764;53.250;10.410;2022-09-28T06:19:31;10.20;99.90
13389;DHT22;6764;53.250;10.410;2022-09-28T06:21:57;10.30;99.90
13389;DHT22;6764;53.250;10.410;2022-09-28T06:24:23;10.30;99.90
13389;DHT22;6764;53.250;10.410;2022-09-28T06:26:48;10.30;99.90
13389;DHT22;6764;53.250;10.410;2022-09-28T06:29:14;10.40;99.90
13389;DHT22;6764;53.250;10.410;2022-09-28T06:31:46;10.40;99.90
13389;DHT22;6764;53.250;10.410;2022-09-28T06:34:13;10.30;99.90
13389;DHT22;6764;53.250;10.410;2022-09-28T06:36:39;10.10;99.90
13389;DHT22;6764;53.250;10.410;2022-09-28T06:39:05;10.10;99.90
13389;DHT22;6764;53.250;10.410;2022-09-28T06:41:31;10.10;99.90
13389;DHT22;6764;53.250;10.410;2022-09-28T06:43:56;10.10;99.90
13389;DHT22;6764;53.250;10.410;2022-09-28T06:46:22;10.30;99.90
13389;DHT22;6764;53.250;10.410;2022-09-28T06:48:48;10.40;99.90
13389;DHT22;6764;53.250;10.410;2022-09-28T06:51:14;10.40;99.90
13389;DHT22;6764;53.250;10.410;2022-09-28T06:53:40;10.30;99.90
13389;DHT22;6764;53.250;10.410;2022-09-28T06:56:08;10.30;99.90
13389;DHT22;6764;53.250;10.410;2022-09-28T06:58:34;10.30;99.90
13389;DHT22;6764;53.250;10.410;2022-09-28T07:01:00;10.30;99.90
13389;DHT22;6764;53.250;10.410;2022-09-28T07:03:26;10.30;99.90
13389;DHT22;6764;53.250;10.410;2022-09-28T07:05:53;10.30;99.90
13389;DHT22;6764;53.250;10.410;2022-09-28T07:08:23;10.30;99.90
13389;DHT22;6764;53.250;10.410;2022-09-28T07:10:50;10.40;99.90
13389;DHT22;6764;53.250;10.410;2022-09-28T07:13:22;10.50;99.90
13389;DHT22;6764;53.250;10.410;2022-09-28T07:15:52;10.60;99.90
13389;DHT22;6764;53.250;10.410;2022-09-28T07:18:18;10.60;99.90
13389;DHT22;6764;53.250;10.410;2022-09-28T07:20:43;10.60;99.90
13389;DHT22;6764;53.250;10.410;2022-09-28T07:23:09;10.60;99.90
13389;DHT22;6764;53.250;10.410;2022-09-28T07:25:35;10.70;99.90
13389;DHT22;6764;53.250;10.410;2022-09-28T07:28:03;10.60;99.90
13389;DHT22;6764;53.250;10.410;2022-09-28T07:30:31;10.60;99.90
13389;DHT22;6764;53.250;10.410;2022-09-28T07:32:58;10.60;99.90
13389;DHT22;6764;53.250;10.410;2022-09-28T07:35:24;10.70;99.90
13389;DHT22;6764;53.250;10.410;2022-09-28T07:37:57;10.80;99.90
13389;DHT22;6764;53.250;10.410;2022-09-28T07:40:24;10.90;99.90
13389;DHT22;6764;53.250;10.410;2022-09-28T07:43:09;11.00;99.90
13389;DHT22;6764;53.250;10.410;2022-09-28T07:45:34;11.00;99.90
13389;DHT22;6764;53.250;10.410;2022-09-28T07:48:01;11.10;99.90
13389;DHT22;6764;53.250;10.410;2022-09-28T07:50:27;11.10;99.90
13389;DHT22;6764;53.250;10.410;2022-09-28T07:52:55;11.10;99.90
13389;DHT22;6764;53.250;10.410;2022-09-28T07:55:22;11.10;99.90
13389;DHT22;6764;53.250;10.410;2022-09-28T07:57:56;11.10;99.90
13389;DHT22;6764;53.250;10.410;2022-09-28T08:00:23;11.10;99.90
13389;DHT22;6764;53.250;10.410;2022-09-28T08:02:49;11.10;99.90
13389;DHT22;6764;53.250;10.410;2022-09-28T08:05:15;11.20;99.90
13389;DHT22;6764;53.250;10.410;2022-09-28T08:07:42;11.20;99.90
13389;DHT22;6764;53.250;10.410;2022-09-28T08:10:07;11.20;99.90
13389;DHT22;6764;53.250;10.410;2022-09-28T08:12:33;11.20;99.90
13389;DHT22;6764;53.250;10.410;2022-09-28T08:15:00;11.10;99.90
13389;DHT22;6764;53.250;10.410;2022-09-28T08:17:26;11.10;99.90
13389;DHT22;6764;53.250;10.410;2022-09-28T08:19:51;11.10;99.90
13389;DHT22;6764;53.250;10.410;2022-09-28T08:22:35;11.10;99.90
13389;DHT22;6764;53.250;10.410;2022-09-28T08:25:01;11.30;99.90
13389;DHT22;6764;53.250;10.410;2022-09-28T08:27:27;11.50;99.90
13389;DHT22;6764;53.250;10.410;2022-09-28T08:29:52;11.70;99.90
13389;DHT22;6764;53.250;10.410;2022-09-28T08:32:18;12.00;99.90
13389;DHT22;6764;53.250;10.410;2022-09-28T08:34:44;12.00;99.90
13389;DHT22;6764;53.250;10.410;2022-09-28T08:37:10;12.00;99.90
13389;DHT22;6764;53.250;10.410;2022-09-28T08:39:36;12.00;99.90
13389;DHT22;6764;53.250;10.410;2022-09-28T08:42:42;11.90;99.90
13389;DHT22;6764;53.250;10.410;2022-09-28T08:45:20;12.10;99.90
13389;DHT22;6764;53.250;10.410;2022-09-28T08:48:02;12.70;99.90
13389;DHT22;6764;53.250;10.410;2022-09-28T08:51:01;13.60;99.90
13389;DHT22;6764;53.250;10.410;2022-09-28T08:56:03;14.00;99.90
13389;DHT22;6764;53.250;10.410;2022-09-28T08:58:37;14.00;99.90
13389;DHT22;6764;53.250;10.410;2022-09-28T09:01:06;14.30;99.90
13389;DHT22;6764;53.250;10.410;2022-09-28T09:03:37;14.60;99.90
13389;DHT22;6764;53.250;10.410;2022-09-28T09:09:14;16.70;99.90
13389;DHT22;6764;53.250;10.410;2022-09-28T09:25:51;24.10;94.00
13389;DHT22;6764;53.250;10.410;2022-09-28T09:39:52;19.60;96.90
13389;DHT22;6764;53.250;10.410;2022-09-28T09:47:37;17.30;99.90
13389;DHT22;6764;53.250;10.410;2022-09-28T09:50:42;16.90;99.90
13389;DHT22;6764;53.250;10.410;2022-09-28T09:53:57;16.50;99.90
13389;DHT22;6764;53.250;10.410;2022-09-28T09:56:30;16.10;99.90
13389;DHT22;6764;53.250;10.410;2022-09-28T09:59:04;16.10;99.90
13389;DHT22;6764;53.250;10.410;2022-09-28T10:01:35;15.80;99.90
13389;DHT22;6764;53.250;10.410;2022-09-28T10:04:06;15.90;99.90
13389;DHT22;6764;53.250;10.410;2022-09-28T10:06:36;16.20;99.90
13389;DHT22;6764;53.250;10.410;2022-09-28T10:09:07;16.00;99.90
13389;DHT22;6764;53.250;10.410;2022-09-28T10:11:42;16.30;99.90
13389;DHT22;6764;53.250;10.410;2022-09-28T10:14:26;16.40;99.90
13389;DHT22;6764;53.250;10.410;2022-09-28T10:16:54;16.80;99.90
13389;DHT22;6764;53.250;10.410;2022-09-28T10:19:32;16.20;99.90
13389;DHT22;6764;53.250;10.410;2022-09-28T10:21:59;16.20;99.90
13389;DHT22;6764;53.250;10.410;2022-09-28T10:24:30;16.10;99.90
13389;DHT22;6764;53.250;10.410;2022-09-28T10:27:22;16.00;99.90
13389;DHT22;6764;53.250;10.410;2022-09-28T10:32:24;15.70;99.90
13389;DHT22;6764;53.250;10.410;2022-09-28T10:34:52;15.40;99.90
13389;DHT22;6764;53.250;10.410;2022-09-28T10:37:19;15.10;99.90
13389;DHT22;6764;53.250;10.410;2022-09-28T10:42:31;14.60;99.90
13389;DHT22;6764;53.250;10.410;2022-09-28T10:45:20;14.40;99.90
13389;DHT22;6764;53.250;10.410;2022-09-28T10:47:48;14.30;99.90
13389;DHT22;6764;53.250;10.410;2022-09-28T10:50:23;14.10;99.90
13389;DHT22;6764;53.250;10.410;2022-09-28T10:52:49;14.10;99.90
13389;DHT22;6764;53.250;10.410;2022-09-28T10:55:25;13.80;99.90
13389;DHT22;6764;53.250;10.410;2022-09-28T10:57:51;13.70;99.90
13389;DHT22;6764;53.250;10.410;2022-09-28T11:00:37;13.60;99.90
13389;DHT22;6764;53.250;10.410;2022-09-28T11:03:03;13.50;99.90
13389;DHT22;6764;53.250;10.410;2022-09-28T11:05:30;13.50;99.90
13389;DHT22;6764;53.250;10.410;2022-09-28T11:08:03;13.60;99.90
13389;DHT22;6764;53.250;10.410;2022-09-28T11:10:32;13.60;99.90
13389;DHT22;6764;53.250;10.410;2022-09-28T11:12:59;13.60;99.90
13389;DHT22;6764;53.250;10.410;2022-09-28T11:15:27;13.70;99.90
13389;DHT22;6764;53.250;10.410;2022-09-28T11:17:54;13.80;99.90
13389;DHT22;6764;53.250;10.410;2022-09-28T11:23:18;14.60;99.90
13389;DHT22;6764;53.250;10.410;2022-09-28T11:25:59;15.20;99.90
13389;DHT22;6764;53.250;10.410;2022-09-28T11:28:36;15.70;99.90
13389;DHT22;6764;53.250;10.410;2022-09-28T11:31:07;16.10;99.90
13389;DHT22;6764;53.250;10.410;2022-09-28T11:33:44;16.50;99.90
13389;DHT22;6764;53.250;10.410;2022-09-28T11:39:04;17.30;99.90
13389;DHT22;6764;53.250;10.410;2022-09-28T11:41:54;17.40;99.90
13389;DHT22;6764;53.250;10.410;2022-09-28T11:44:44;17.10;99.90
13389;DHT22;6764;53.250;10.410;2022-09-28T11:53:26;16.30;99.90
13389;DHT22;6764;53.250;10.410;2022-09-28T11:58:51;15.60;99.90
13389;DHT22;6764;53.250;10.410;2022-09-28T12:01:27;15.30;99.90
13389;DHT22;6764;53.250;10.410;2022-09-28T12:04:05;15.20;99.90
13389;DHT22;6764;53.250;10.410;2022-09-28T12:06:39;15.10;99.90
13389;DHT22;6764;53.250;10.410;2022-09-28T12:09:16;15.00;99.90
13389;DHT22;6764;53.250;10.410;2022-09-28T12:11:48;15.10;99.90
13389;DHT22;6764;53.250;10.410;2022-09-28T12:14:25;15.10;99.90
13389;DHT22;6764;53.250;10.410;2022-09-28T12:17:00;15.00;99.90
13389;DHT22;6764;53.250;10.410;2022-09-28T12:19:46;14.90;99.90
13389;DHT22;6764;53.250;10.410;2022-09-28T12:22:20;14.90;99.90
13389;DHT22;6764;53.250;10.410;2022-09-28T12:24:48;15.00;99.90
13389;DHT22;6764;53.250;10.410;2022-09-28T12:27:34;15.10;99.90
13389;DHT22;6764;53.250;10.410;2022-09-28T12:32:33;15.10;99.90
13389;DHT22;6764;53.250;10.410;2022-09-28T12:35:13;15.00;99.90
13389;DHT22;6764;53.250;10.410;2022-09-28T12:43:05;14.60;99.90
13389;DHT22;6764;53.250;10.410;2022-09-28T12:46:07;14.60;99.90
13389;DHT22;6764;53.250;10.410;2022-09-28T12:48:53;14.60;99.90
13389;DHT22;6764;53.250;10.410;2022-09-28T12:56:40;14.40;99.90
13389;DHT22;6764;53.250;10.410;2022-09-28T12:59:38;14.30;99.90
13389;DHT22;6764;53.250;10.410;2022-09-28T13:04:46;14.50;99.90
13389;DHT22;6764;53.250;10.410;2022-09-28T13:07:29;14.40;99.90
13389;DHT22;6764;53.250;10.410;2022-09-28T13:10:05;14.40;99.90
13389;DHT22;6764;53.250;10.410;2022-09-28T13:12:47;14.60;99.90
13389;DHT22;6764;53.250;10.410;2022-09-28T13:18:16;14.80;99.90
13389;DHT22;6764;53.250;10.410;2022-09-28T13:23:22;14.80;99.90
13389;DHT22;6764;53.250;10.410;2022-09-28T13:26:10;14.80;99.90
13389;DHT22;6764;53.250;10.410;2022-09-28T13:28:39;14.70;99.90
13389;DHT22;6764;53.250;10.410;2022-09-28T13:31:06;14.90;99.90
13389;DHT22;6764;53.250;10.410;2022-09-28T13:33:35;14.80;99.90
13389;DHT22;6764;53.250;10.410;2022-09-28T13:38:58;14.90;99.90
13389;DHT22;6764;53.250;10.410;2022-09-28T13:41:38;15.00;99.90
13389;DHT22;6764;53.250;10.410;2022-09-28T13:57:50;15.30;99.90
13389;DHT22;6764;53.250;10.410;2022-09-28T14:03:22;15.40;99.90
13389;DHT22;6764;53.250;10.410;2022-09-28T14:06:30;15.40;99.90
13389;DHT22;6764;53.250;10.410;2022-09-28T14:11:53;15.30;99.90
13389;DHT22;6764;53.250;10.410;2022-09-28T14:14:25;15.30;99.90
13389;DHT22;6764;53.250;10.410;2022-09-28T14:19:44;15.40;99.90
13389;DHT22;6764;53.250;10.410;2022-09-28T14:25:12;15.60;99.90
13389;DHT22;6764;53.250;10.410;2022-09-28T14:27:59;15.50;99.90
13389;DHT22;6764;53.250;10.410;2022-09-28T14:30:48;15.30;99.90
13389;DHT22;6764;53.250;10.410;2022-09-28T14:33:28;15.20;99.90
13389;DHT22;6764;53.250;10.410;2022-09-28T14:36:04;15.30;99.90
13389;DHT22;6764;53.250;10.410;2022-09-28T14:38:54;15.20;99.90
13389;DHT22;6764;53.250;10.410;2022-09-28T14:41:40;15.10;99.90
13389;DHT22;6764;53.250;10.410;2022-09-28T14:44:13;15.00;99.90
13389;DHT22;6764;53.250;10.410;2022-09-28T14:46:46;14.90;99.90
13389;DHT22;6764;53.250;10.410;2022-09-28T14:51:59;14.90;99.90
13389;DHT22;6764;53.250;10.410;2022-09-28T14:54:38;15.00;99.90
13389;DHT22;6764;53.250;10.410;2022-09-28T14:57:23;15.00;99.90
13389;DHT22;6764;53.250;10.410;2022-09-28T14:59:49;15.00;99.90
13389;DHT22;6764;53.250;10.410;2022-09-28T15:02:32;15.30;99.90
13389;DHT22;6764;53.250;10.410;2022-09-28T15:05:15;15.40;99.90
13389;DHT22;6764;53.250;10.410;2022-09-28T15:07:48;15.40;99.90
13389;DHT22;6764;53.250;10.410;2022-09-28T15:10:24;15.30;99.90
13389;DHT22;6764;53.250;10.410;2022-09-28T15:12:53;15.00;99.90
13389;DHT22;6764;53.250;10.410;2022-09-28T15:15:39;15.10;99.90
13389;DHT22;6764;53.250;10.410;2022-09-28T15:21:15;14.90;99.90
13389;DHT22;6764;53.250;10.410;2022-09-28T15:23:43;14.70;99.90
13389;DHT22;6764;53.250;10.410;2022-09-28T15:26:28;14.70;99.90
13389;DHT22;6764;53.250;10.410;2022-09-28T15:28:55;14.60;99.90
13389;DHT22;6764;53.250;10.410;2022-09-28T15:31:24;14.60;99.90
13389;DHT22;6764;53.250;10.410;2022-09-28T15:33:50;14.60;99.90
13389;DHT22;6764;53.250;10.410;2022-09-28T15:36:44;14.50;99.90
13389;DHT22;6764;53.250;10.410;2022-09-28T15:39:20;14.50;99.90
13389;DHT22;6764;53.250;10.410;2022-09-28T15:41:49;14.50;99.90
13389;DHT22;6764;53.250;10.410;2022-09-28T15:44:36;14.50;99.90
13389;DHT22;6764;53.250;10.410;2022-09-28T15:47:23;14.30;99.90
13389;DHT22;6764;53.250;10.410;2022-09-28T15:50:04;14.20;99.90
13389;DHT22;6764;53.250;10.410;2022-09-28T15:52:38;14.10;99.90
13389;DHT22;6764;53.250;10.410;2022-09-28T16:00:32;14.10;99.90
13389;DHT22;6764;53.250;10.410;2022-09-28T16:06:11;14.10;99.90
13389;DHT22;6764;53.250;10.410;2022-09-28T16:08:39;14.00;99.90
13389;DHT22;6764;53.250;10.410;2022-09-28T16:11:17;14.00;99.90
13389;DHT22;6764;53.250;10.410;2022-09-28T16:14:02;14.00;99.90
13389;DHT22;6764;53.250;10.410;2022-09-28T16:16:46;14.00;99.90
13389;DHT22;6764;53.250;10.410;2022-09-28T16:19:22;14.10;99.90
13389;DHT22;6764;53.250;10.410;2022-09-28T16:21:57;14.10;99.90
13389;DHT22;6764;53.250;10.410;2022-09-28T16:24:28;14.10;99.90
13389;DHT22;6764;53.250;10.410;2022-09-28T16:26:58;14.00;99.90
13389;DHT22;6764;53.250;10.410;2022-09-28T16:29:26;14.00;99.90
13389;DHT22;6764;53.250;10.410;2022-09-28T16:31:52;13.90;99.90
13389;DHT22;6764;53.250;10.410;2022-09-28T16:34:23;13.80;99.90
13389;DHT22;6764;53.250;10.410;2022-09-28T16:36:49;13.70;99.90
13389;DHT22;6764;53.250;10.410;2022-09-28T16:39:16;13.70;99.90
13389;DHT22;6764;53.250;10.410;2022-09-28T16:41:50;13.60;99.90
13389;DHT22;6764;53.250;10.410;2022-09-28T16:44:21;13.60;99.90
13389;DHT22;6764;53.250;10.410;2022-09-28T16:46:48;13.50;99.90
13389;DHT22;6764;53.250;10.410;2022-09-28T16:49:15;13.50;99.90
13389;DHT22;6764;53.250;10.410;2022-09-28T16:51:45;13.50;99.90
13389;DHT22;6764;53.250;10.410;2022-09-28T16:54:17;13.30;99.90
13389;DHT22;6764;53.250;10.410;2022-09-28T16:57:04;13.20;99.90
13389;DHT22;6764;53.250;10.410;2022-09-28T16:59:30;13.10;99.90
13389;DHT22;6764;53.250;10.410;2022-09-28T17:01:56;13.10;99.90
13389;DHT22;6764;53.250;10.410;2022-09-28T17:04:23;13.00;99.90
13389;DHT22;6764;53.250;10.410;2022-09-28T17:06:50;13.00;99.90
13389;DHT22;6764;53.250;10.410;2022-09-28T17:09:18;12.90;99.90
13389;DHT22;6764;53.250;10.410;2022-09-28T17:11:44;12.90;99.90
13389;DHT22;6764;53.250;10.410;2022-09-28T17:14:09;12.80;99.90
13389;DHT22;6764;53.250;10.410;2022-09-28T17:16:36;12.80;99.90
13389;DHT22;6764;53.250;10.410;2022-09-28T17:19:15;12.80;99.90
13389;DHT22;6764;53.250;10.410;2022-09-28T17:21:42;12.70;99.90
13389;DHT22;6764;53.250;10.410;2022-09-28T17:24:07;12.60;99.90
13389;DHT22;6764;53.250;10.410;2022-09-28T17:26:33;12.60;99.90
13389;DHT22;6764;53.250;10.410;2022-09-28T17:29:01;12.50;99.90
13389;DHT22;6764;53.250;10.410;2022-09-28T17:31:28;12.50;99.90
13389;DHT22;6764;53.250;10.410;2022-09-28T17:33:53;12.40;99.90
13389;DHT22;6764;53.250;10.410;2022-09-28T17:36:20;12.40;99.90
13389;DHT22;6764;53.250;10.410;2022-09-28T17:38:46;12.40;99.90
13389;DHT22;6764;53.250;10.410;2022-09-28T17:41:15;12.40;99.90
13389;DHT22;6764;53.250;10.410;2022-09-28T17:43:40;12.30;99.90
13389;DHT22;6764;53.250;10.410;2022-09-28T17:46:27;12.30;99.90
13389;DHT22;6764;53.250;10.410;2022-09-28T17:48:53;12.30;99.90
13389;DHT22;6764;53.250;10.410;2022-09-28T17:51:19;12.20;99.90
13389;DHT22;6764;53.250;10.410;2022-09-28T17:53:46;12.10;99.90
13389;DHT22;6764;53.250;10.410;2022-09-28T17:56:12;12.10;99.90
13389;DHT22;6764;53.250;10.410;2022-09-28T17:58:38;12.00;99.90
13389;DHT22;6764;53.250;10.410;2022-09-28T18:01:03;11.90;99.90
13389;DHT22;6764;53.250;10.410;2022-09-28T18:03:29;11.90;99.90
13389;DHT22;6764;53.250;10.410;2022-09-28T18:06:01;11.90;99.90
13389;DHT22;6764;53.250;10.410;2022-09-28T18:08:28;11.90;99.90
13389;DHT22;6764;53.250;10.410;2022-09-28T18:10:53;11.80;99.90
13389;DHT22;6764;53.250;10.410;2022-09-28T18:13:21;11.70;99.90
13389;DHT22;6764;53.250;10.410;2022-09-28T18:15:50;11.70;99.90
13389;DHT22;6764;53.250;10.410;2022-09-28T18:18:15;11.70;99.90